createdAt,value
2022-11-26T00:02:21.380Z,20.07
2022-11-26T00:05:25.373Z,19.80
2022-11-26T00:08:31.730Z,18.97
2022-11-26T00:11:34.655Z,21.83
2022-11-26T00:14:37.820Z,21.97
2022-11-26T00:17:42.419Z,22.13
2022-11-26T00:20:46.453Z,21.50
2022-11-26T00:23:49.624Z,23.93
2022-11-26T00:26:52.747Z,23.27
2022-11-26T00:29:55.960Z,22.77
2022-11-26T00:33:00.456Z,22.17
2022-11-26T00:36:07.952Z,22.70
2022-11-26T00:39:16.714Z,22.20
2022-11-26T00:42:20.375Z,24.70
2022-11-26T00:45:25.479Z,22.90
2022-11-26T00:48:29.750Z,24.23
2022-11-26T00:51:32.807Z,23.87
2022-11-26T00:54:35.971Z,23.30
2022-11-26T00:57:39.128Z,23.20
2022-11-26T01:00:42.120Z,24.83
2022-11-26T01:03:46.618Z,24.40
2022-11-26T01:06:49.579Z,23.23
2022-11-26T01:09:52.531Z,22.20
2022-11-26T01:12:56.805Z,23.67
2022-11-26T01:16:01.857Z,22.97
2022-11-26T01:19:11.738Z,22.50
2022-11-26T01:22:21.308Z,21.67
2022-11-26T01:25:26.677Z,22.90
2022-11-26T01:28:29.675Z,22.77
2022-11-26T01:31:33.235Z,24.67
2022-11-26T01:34:37.943Z,23.93
2022-11-26T01:37:41.318Z,23.20
2022-11-26T01:41:00.605Z,22.67
2022-11-26T01:44:05.467Z,23.97
2022-11-26T01:47:22.408Z,21.10
2022-11-26T01:50:53.631Z,23.50
2022-11-26T01:53:59.992Z,24.63
2022-11-26T01:57:09.988Z,25.17
2022-11-26T02:00:14.172Z,23.47
2022-11-26T02:03:17.409Z,24.20
2022-11-26T02:06:25.820Z,24.40
2022-11-26T02:09:30.356Z,23.20
2022-11-26T02:12:33.715Z,23.60
2022-11-26T02:15:46.119Z,23.57
2022-11-26T02:19:00.018Z,24.17
2022-11-26T02:22:13.262Z,25.23
2022-11-26T02:25:21.026Z,24.67
2022-11-26T02:28:43.124Z,24.50
2022-11-26T02:31:52.804Z,25.70
2022-11-26T02:34:59.937Z,27.30
2022-11-26T02:38:06.432Z,24.50
2022-11-26T02:41:09.355Z,24.13
2022-11-26T02:44:12.872Z,23.83
2022-11-26T02:47:21.055Z,24.90
2022-11-26T02:50:28.465Z,25.33
2022-11-26T02:53:33.851Z,25.80
2022-11-26T02:56:37.253Z,27.03
2022-11-26T02:59:40.741Z,29.10
2022-11-26T03:02:48.502Z,29.80
2022-11-26T03:05:54.897Z,30.93
2022-11-26T03:08:58.014Z,28.80
2022-11-26T03:12:01.008Z,30.17
2022-11-26T03:15:04.423Z,28.73
2022-11-26T03:18:08.892Z,27.33
2022-11-26T03:21:11.781Z,30.20
2022-11-26T03:24:14.768Z,27.27
2022-11-26T03:27:17.651Z,26.87
2022-11-26T03:30:20.883Z,28.83
2022-11-26T03:33:25.138Z,29.53
2022-11-26T03:36:28.129Z,29.10
2022-11-26T03:39:31.220Z,30.87
2022-11-26T03:42:34.176Z,29.20
2022-11-26T03:45:37.118Z,28.43
2022-11-26T03:48:41.560Z,31.93
2022-11-26T03:51:44.535Z,30.60
2022-11-26T03:54:47.431Z,33.13
2022-11-26T03:57:50.352Z,31.13
2022-11-26T04:00:53.342Z,33.70
2022-11-26T04:03:57.618Z,33.97
2022-11-26T04:07:00.566Z,34.67
2022-11-26T04:10:03.811Z,34.90
2022-11-26T04:13:06.766Z,34.27
2022-11-26T04:16:10.472Z,34.20
2022-11-26T04:19:14.896Z,35.17
2022-11-26T04:22:17.789Z,32.17
2022-11-26T04:25:20.724Z,33.50
2022-11-26T04:28:23.638Z,33.33
2022-11-26T04:31:26.609Z,32.23
2022-11-26T04:34:31.062Z,32.40
2022-11-26T04:37:34.057Z,32.23
2022-11-26T04:40:37.391Z,31.63
2022-11-26T04:43:40.745Z,32.13
2022-11-26T04:46:43.660Z,33.07
2022-11-26T04:49:47.947Z,34.43
2022-11-26T04:52:50.876Z,31.00
2022-11-26T04:55:54.331Z,30.60
2022-11-26T04:58:57.238Z,31.40
2022-11-26T05:02:00.369Z,30.10
2022-11-26T05:05:04.969Z,28.53
2022-11-26T05:08:08.028Z,29.03
2022-11-26T05:11:10.902Z,29.50
2022-11-26T05:14:13.808Z,27.17
2022-11-26T05:17:16.734Z,28.23
2022-11-26T05:20:21.202Z,27.27
2022-11-26T05:23:24.132Z,28.40
2022-11-26T05:26:27.385Z,30.03
2022-11-26T05:29:31.706Z,28.53
2022-11-26T05:32:34.629Z,28.07
2022-11-26T05:35:39.352Z,25.30
2022-11-26T05:38:42.319Z,25.73
2022-11-26T05:41:45.234Z,24.50
2022-11-26T05:44:48.111Z,25.87
2022-11-26T05:47:51.018Z,24.70
2022-11-26T05:50:59.898Z,22.00
2022-11-26T05:54:02.963Z,24.27
2022-11-26T05:57:05.957Z,22.97
2022-11-26T06:00:10.487Z,22.00
2022-11-26T06:03:17.056Z,22.57
2022-11-26T06:06:24.417Z,22.93
2022-11-26T06:09:27.361Z,21.37
2022-11-26T06:12:30.331Z,20.80
2022-11-26T06:15:33.256Z,20.90
2022-11-26T06:18:37.783Z,21.90
2022-11-26T06:21:42.117Z,21.03
2022-11-26T06:24:45.037Z,20.63
2022-11-26T06:27:48.055Z,21.33
2022-11-26T06:30:51.091Z,22.80
2022-11-26T06:33:55.145Z,21.33
2022-11-26T06:37:00.596Z,21.07
2022-11-26T06:40:03.751Z,21.07
2022-11-26T06:43:06.665Z,19.90
2022-11-26T06:46:11.146Z,19.60
2022-11-26T06:49:14.124Z,20.60
2022-11-26T06:52:18.403Z,19.87
2022-11-26T06:55:21.843Z,18.97
2022-11-26T06:58:26.231Z,19.20
2022-11-26T07:01:29.441Z,18.77
2022-11-26T07:04:32.437Z,19.50
2022-11-26T07:07:39.292Z,18.47
2022-11-26T07:10:47.509Z,19.47
2022-11-26T07:13:52.339Z,18.83
2022-11-26T07:16:55.232Z,17.90
2022-11-26T07:19:58.261Z,17.53
2022-11-26T07:23:04.555Z,19.67
2022-11-26T07:26:09.059Z,16.70
2022-11-26T07:29:11.999Z,18.23
2022-11-26T07:32:14.962Z,19.23
2022-11-26T07:35:17.991Z,19.13
2022-11-26T07:38:22.316Z,19.53
2022-11-26T07:41:26.105Z,18.90
2022-11-26T07:44:29.014Z,20.83
2022-11-26T07:47:31.931Z,20.47
2022-11-26T07:50:34.796Z,19.90
2022-11-26T07:53:39.073Z,20.13
2022-11-26T07:56:43.465Z,20.80
2022-11-26T07:59:46.356Z,18.00
2022-11-26T08:02:49.289Z,18.20
2022-11-26T08:05:52.278Z,16.27
2022-11-26T08:08:56.757Z,16.93
2022-11-26T08:11:59.678Z,15.80
2022-11-26T08:15:02.711Z,15.10
2022-11-26T08:18:05.749Z,14.87
2022-11-26T08:21:08.837Z,16.20
2022-11-26T08:24:15.774Z,16.10
2022-11-26T08:27:18.707Z,14.37
2022-11-26T08:30:21.824Z,15.70
2022-11-26T08:33:24.757Z,14.90
2022-11-26T08:36:28.473Z,13.90
2022-11-26T08:39:32.847Z,14.17
2022-11-26T08:42:35.799Z,12.53
2022-11-26T08:45:38.724Z,14.27
2022-11-26T08:48:42.207Z,14.47
2022-11-26T08:51:45.387Z,12.93
2022-11-26T08:54:49.848Z,13.67
2022-11-26T08:57:53.107Z,13.47
2022-11-26T09:00:56.790Z,13.77
2022-11-26T09:04:01.443Z,13.33
2022-11-26T09:07:04.367Z,13.40
2022-11-26T09:10:10.100Z,13.80
2022-11-26T09:13:15.143Z,12.77
2022-11-26T09:16:20.431Z,12.90
2022-11-26T09:19:23.557Z,12.17
2022-11-26T09:22:26.524Z,11.53
2022-11-26T09:25:30.819Z,13.50
2022-11-26T09:28:33.774Z,12.07
2022-11-26T09:31:42.742Z,12.27
2022-11-26T09:34:58.144Z,11.53
2022-11-26T09:38:01.080Z,11.33
2022-11-26T09:41:11.374Z,12.23
2022-11-26T09:44:26.959Z,12.20
2022-11-26T09:47:34.395Z,12.73
2022-11-26T09:50:38.567Z,12.27
2022-11-26T09:53:45.118Z,12.03
2022-11-26T09:56:51.396Z,13.57
2022-11-26T09:59:56.468Z,11.73
2022-11-26T10:02:59.951Z,11.43
2022-11-26T10:06:07.490Z,10.97
2022-11-26T10:09:41.004Z,10.60
2022-11-26T10:13:17.487Z,11.10
2022-11-26T10:16:25.227Z,9.87
2022-11-26T10:19:33.724Z,9.73
2022-11-26T10:22:43.634Z,10.13
2022-11-26T10:25:50.675Z,10.17
2022-11-26T10:29:07.422Z,9.43
2022-11-26T10:32:15.961Z,8.40
2022-11-26T10:35:21.523Z,8.87
2022-11-26T10:38:24.420Z,8.30
2022-11-26T10:41:31.290Z,8.53
2022-11-26T10:44:40.373Z,8.83
2022-11-26T10:47:43.575Z,10.53
2022-11-26T10:51:00.277Z,11.03
2022-11-26T10:54:07.466Z,10.97
2022-11-26T10:57:16.437Z,9.67
2022-11-26T11:00:45.706Z,10.53
2022-11-26T11:04:08.497Z,11.67
2022-11-26T11:07:30.936Z,10.30
2022-11-26T11:10:35.515Z,10.30
2022-11-26T11:13:42.917Z,9.77
2022-11-26T11:16:47.294Z,10.10
2022-11-26T11:19:50.402Z,9.30
2022-11-26T11:23:06.697Z,9.50
2022-11-26T11:26:16.725Z,9.00
2022-11-26T11:29:32.703Z,9.67
2022-11-26T11:32:40.169Z,8.60
2022-11-26T11:35:43.339Z,9.63
2022-11-26T11:38:48.900Z,10.03
2022-11-26T11:41:52.100Z,10.43
2022-11-26T11:44:55.258Z,9.17
2022-11-26T11:48:06.891Z,10.03
2022-11-26T11:51:17.475Z,9.93
2022-11-26T11:54:26.002Z,10.47
2022-11-26T11:57:43.342Z,10.37
2022-11-26T12:00:53.408Z,8.93
2022-11-26T12:04:19.946Z,9.07
2022-11-26T12:07:38.410Z,9.17
2022-11-26T12:10:51.238Z,10.27
2022-11-26T12:13:58.616Z,9.20
2022-11-26T12:17:07.506Z,8.83
2022-11-26T12:20:21.093Z,9.63
2022-11-26T12:23:30.793Z,9.53
2022-11-26T12:26:38.266Z,9.07
2022-11-26T12:29:46.751Z,7.87
2022-11-26T12:32:54.681Z,7.93
2022-11-26T12:36:04.675Z,9.60
2022-11-26T12:39:19.086Z,9.40
2022-11-26T12:42:29.123Z,8.97
2022-11-26T12:45:47.848Z,9.23
2022-11-26T12:48:55.893Z,8.67
2022-11-26T12:52:18.421Z,10.53
2022-11-26T12:55:29.182Z,9.50
2022-11-26T12:58:40.476Z,9.43
2022-11-26T13:01:43.414Z,10.13
2022-11-26T13:04:46.491Z,10.07
2022-11-26T13:08:05.438Z,10.10
2022-11-26T13:11:25.149Z,10.87
2022-11-26T13:14:41.403Z,10.97
2022-11-26T13:17:48.706Z,11.40
2022-11-26T13:21:05.199Z,10.47
2022-11-26T13:24:34.075Z,10.83
2022-11-26T13:27:50.484Z,11.30
2022-11-26T13:31:06.794Z,10.10
2022-11-26T13:34:32.434Z,9.87
2022-11-26T13:37:50.039Z,10.87
2022-11-26T13:41:32.077Z,10.53
2022-11-26T13:45:12.633Z,10.00
2022-11-26T13:48:18.394Z,9.83
2022-11-26T13:51:32.154Z,10.10
2022-11-26T13:54:39.554Z,9.13
2022-11-26T13:57:47.584Z,9.97
2022-11-26T14:00:50.633Z,8.93
2022-11-26T14:03:53.629Z,9.07
2022-11-26T14:07:19.922Z,10.00
2022-11-26T14:10:44.285Z,9.63
2022-11-26T14:14:29.459Z,9.50
2022-11-26T14:17:52.470Z,8.67
2022-11-26T14:21:13.212Z,8.50
2022-11-26T14:24:55.165Z,8.37
2022-11-26T14:27:59.563Z,10.07
2022-11-26T14:31:15.237Z,10.60
2022-11-26T14:34:25.685Z,10.20
2022-11-26T14:37:30.556Z,9.33
2022-11-26T14:40:35.184Z,8.83
2022-11-26T14:43:38.310Z,9.47
2022-11-26T14:46:44.396Z,8.83
2022-11-26T14:49:54.183Z,9.43
2022-11-26T14:53:00.810Z,9.30
2022-11-26T14:56:04.336Z,10.20
2022-11-26T14:59:12.472Z,10.43
2022-11-26T15:02:24.052Z,10.63
2022-11-26T15:05:28.915Z,10.37
2022-11-26T15:08:31.805Z,11.00
2022-11-26T15:11:37.745Z,11.93
2022-11-26T15:14:43.817Z,10.80
2022-11-26T15:17:53.044Z,11.77
2022-11-26T15:20:56.884Z,14.33
2022-11-26T15:24:03.454Z,12.63
2022-11-26T15:27:06.335Z,11.73
2022-11-26T15:30:21.216Z,12.80
2022-11-26T15:33:26.672Z,13.27
2022-11-26T15:36:29.631Z,13.87
2022-11-26T15:39:32.942Z,14.50
2022-11-26T15:42:36.185Z,14.37
2022-11-26T15:45:41.644Z,13.70
2022-11-26T15:48:53.198Z,13.30
2022-11-26T15:51:59.189Z,14.07
2022-11-26T15:55:13.636Z,13.77
2022-11-26T15:58:22.707Z,14.80
2022-11-26T16:01:28.348Z,13.90
2022-11-26T16:04:45.515Z,14.93
2022-11-26T16:07:58.638Z,13.87
2022-11-26T16:11:08.632Z,12.43
2022-11-26T16:14:29.046Z,12.20
2022-11-26T16:17:32.006Z,11.83
2022-11-26T16:20:36.344Z,12.30
2022-11-26T16:23:39.381Z,11.50
2022-11-26T16:26:54.824Z,10.20
2022-11-26T16:29:57.811Z,10.50
2022-11-26T16:33:00.746Z,10.97
2022-11-26T16:36:22.698Z,9.50
2022-11-26T16:39:30.035Z,10.17
2022-11-26T16:42:33.811Z,9.47
2022-11-26T16:45:36.980Z,9.50
2022-11-26T16:48:41.236Z,8.77
2022-11-26T16:51:45.471Z,8.60
2022-11-26T16:54:49.039Z,9.70
2022-11-26T16:57:53.753Z,10.60
2022-11-26T17:00:57.799Z,11.47
2022-11-26T17:04:00.732Z,10.20
2022-11-26T17:07:04.990Z,9.70
2022-11-26T17:10:12.097Z,9.50
2022-11-26T17:13:15.088Z,8.83
2022-11-26T17:16:20.551Z,8.80
2022-11-26T17:19:23.778Z,7.83
2022-11-26T17:22:28.078Z,9.63
2022-11-26T17:25:31.044Z,8.67
2022-11-26T17:28:33.970Z,8.93
2022-11-26T17:31:37.343Z,9.47
2022-11-26T17:34:40.312Z,9.47
2022-11-26T17:37:44.931Z,10.70
2022-11-26T17:40:49.297Z,9.23
2022-11-26T17:43:52.226Z,9.30
2022-11-26T17:50:21.686Z,12.67
2022-11-26T17:53:25.942Z,11.40
2022-11-26T17:56:29.006Z,9.90
2022-11-26T17:59:32.510Z,13.37
2022-11-26T18:02:35.483Z,12.17
2022-11-26T18:05:42.047Z,13.20
2022-11-26T18:08:47.147Z,14.13
2022-11-26T18:11:53.247Z,13.97
2022-11-26T18:14:57.690Z,13.60
2022-11-26T18:18:00.684Z,13.10
2022-11-26T18:21:04.172Z,14.03
2022-11-26T18:24:10.737Z,14.87
2022-11-26T18:27:13.789Z,16.03
2022-11-26T18:30:17.791Z,13.80
2022-11-26T18:33:20.736Z,13.30
2022-11-26T18:36:23.842Z,15.53
2022-11-26T18:39:28.145Z,14.13
2022-11-26T18:42:38.682Z,13.23
2022-11-26T18:45:43.144Z,13.83
2022-11-26T18:48:47.865Z,13.97
2022-11-26T18:51:50.824Z,13.37
2022-11-26T18:54:55.103Z,16.77
2022-11-26T18:57:58.017Z,14.77
2022-11-26T19:01:00.996Z,14.07
2022-11-26T19:04:04.284Z,14.27
2022-11-26T19:07:07.196Z,17.87
2022-11-26T19:10:12.734Z,17.17
2022-11-26T19:13:15.850Z,17.47
2022-11-26T19:16:22.536Z,19.23
2022-11-26T19:19:27.327Z,18.07
2022-11-26T19:22:30.311Z,18.53
2022-11-26T19:25:34.614Z,16.67
2022-11-26T19:28:37.586Z,19.53
2022-11-26T19:31:40.683Z,19.90
2022-11-26T19:34:43.620Z,20.20
2022-11-26T19:37:46.779Z,17.90
2022-11-26T19:40:56.894Z,21.00
2022-11-26T19:44:01.301Z,21.57
2022-11-26T19:47:04.557Z,18.63
2022-11-26T19:50:09.333Z,20.90
2022-11-26T19:53:12.276Z,20.03
2022-11-26T19:56:18.906Z,20.00
2022-11-26T19:59:22.040Z,21.03
2022-11-26T20:02:25.086Z,21.27
2022-11-26T20:05:28.112Z,22.67
2022-11-26T20:08:31.053Z,19.17
2022-11-26T20:11:38.401Z,18.67
2022-11-26T20:14:41.309Z,18.00
2022-11-26T20:17:44.226Z,18.80
2022-11-26T20:20:58.332Z,18.17
2022-11-26T20:24:02.864Z,18.00
2022-11-26T20:27:07.144Z,18.93
2022-11-26T20:30:11.369Z,18.50
2022-11-26T20:33:15.734Z,17.77
2022-11-26T20:36:20.956Z,17.43
2022-11-26T20:39:24.997Z,15.87
2022-11-26T20:42:29.373Z,17.00
2022-11-26T20:45:32.398Z,16.33
2022-11-26T20:48:37.188Z,18.20
2022-11-26T20:51:40.330Z,19.03
2022-11-26T20:54:43.219Z,17.17
2022-11-26T20:57:47.924Z,18.63
2022-11-26T21:00:51.036Z,15.80
2022-11-26T21:03:55.317Z,16.77
2022-11-26T21:06:58.237Z,15.57
2022-11-26T21:10:01.195Z,18.43
2022-11-26T21:13:05.468Z,18.97
2022-11-26T21:16:12.981Z,18.87
2022-11-26T21:19:16.123Z,17.77
2022-11-26T21:22:19.054Z,18.70
2022-11-26T21:25:21.930Z,18.40
2022-11-26T21:28:26.200Z,17.67
2022-11-26T21:31:31.163Z,18.30
2022-11-26T21:34:34.383Z,18.27
2022-11-26T21:37:37.303Z,18.20
2022-11-26T21:40:40.228Z,17.43
2022-11-26T21:43:45.583Z,18.87
2022-11-26T21:46:49.016Z,15.43
2022-11-26T21:49:52.022Z,17.30
2022-11-26T21:52:54.966Z,18.17
2022-11-26T21:55:57.836Z,16.83
2022-11-26T21:59:02.998Z,17.73
2022-11-26T22:02:06.275Z,19.17
2022-11-26T22:05:09.480Z,17.83
2022-11-26T22:08:12.503Z,19.57
2022-11-26T22:11:18.512Z,20.00
2022-11-26T22:14:23.076Z,23.37
2022-11-26T22:17:26.572Z,22.57
2022-11-26T22:20:29.503Z,20.53
2022-11-26T22:23:32.445Z,20.00
2022-11-26T22:26:35.854Z,20.73
2022-11-26T22:29:40.205Z,20.93
2022-11-26T22:32:43.298Z,21.17
2022-11-26T22:35:46.195Z,19.57
2022-11-26T22:38:49.143Z,20.77
2022-11-26T22:41:54.334Z,20.90
2022-11-26T22:44:58.648Z,20.83
2022-11-26T22:48:01.507Z,20.23
2022-11-26T22:51:04.590Z,22.03
2022-11-26T22:54:08.857Z,20.13
2022-11-26T22:57:11.804Z,19.47
2022-11-26T23:00:47.665Z,20.53
2022-11-26T23:03:51.185Z,18.70
2022-11-26T23:06:54.138Z,19.57
2022-11-26T23:09:57.108Z,19.33
2022-11-26T23:13:00.067Z,19.67
2022-11-26T23:16:07.399Z,17.87
2022-11-26T23:19:11.968Z,20.03
2022-11-26T23:22:14.905Z,19.63
2022-11-26T23:25:18.090Z,19.50
2022-11-26T23:28:20.975Z,18.87
2022-11-26T23:31:27.122Z,18.17
2022-11-26T23:34:30.225Z,17.80
2022-11-26T23:37:33.247Z,18.20
2022-11-26T23:40:36.146Z,17.23
2022-11-26T23:43:39.966Z,17.40
2022-11-26T23:46:44.354Z,18.30
2022-11-26T23:49:47.296Z,24.30
2022-11-26T23:52:50.184Z,21.57
2022-11-26T23:55:53.179Z,19.70
2022-11-26T23:58:57.870Z,19.47
